Time;durP1;ratioP1;P1;durP2;ratioP2;P2;SDS_P1;SDS_P2;PMS_P1;PMS_P2;Temp;Humidity;BMP_temperature;BMP_pressure;BME280_temperature;BME280_humidity;BME280_pressure;Samples;Min_cycle;Max_cycle;Signal;HPM_P1;HPM_P2
2023/09/28 00:03:47;;;;;;;10.40;9.20;;;20.20;95.70;;;;;;10501601;28;20406;-66
2023/09/28 00:08:47;;;;;;;10.27;8.68;;;20.20;95.60;;;;;;10496911;28;20433;-66
2023/09/28 00:13:48;;;;;;;10.95;9.63;;;20.20;95.60;;;;;;10501968;28;21171;-66
2023/09/28 00:18:49;;;;;;;9.88;8.88;;;20.20;95.60;;;;;;10496861;28;20926;-66
2023/09/28 00:23:49;;;;;;;10.82;9.73;;;20.20;95.60;;;;;;10489028;28;20396;-66
2023/09/28 00:28:50;;;;;;;10.50;8.80;;;20.20;95.60;;;;;;10500871;28;20401;-66
2023/09/28 00:33:51;;;;;;;10.40;8.57;;;20.10;95.50;;;;;;10507993;28;20943;-66
2023/09/28 00:38:52;;;;;;;10.20;8.63;;;20.20;95.60;;;;;;10494417;28;20401;-66
2023/09/28 00:43:54;;;;;;;10.30;9.17;;;20.10;95.60;;;;;;10495040;28;20791;-66
2023/09/28 00:49:03;;;;;;;9.37;8.23;;;20.20;95.60;;;;;;10506519;28;20784;-66
2023/09/28 00:54:06;;;;;;;9.13;8.23;;;20.10;95.50;;;;;;10489107;28;20399;-66
2023/09/28 00:59:06;;;;;;;11.30;9.20;;;20.10;95.60;;;;;;10499769;28;20546;-66
2023/09/28 01:04:07;;;;;;;10.73;8.07;;;20.10;95.50;;;;;;10505013;28;20399;-66
2023/09/28 01:09:09;;;;;;;10.25;8.40;;;20.10;95.60;;;;;;10494922;28;20423;-66
2023/09/28 01:14:10;;;;;;;10.73;8.93;;;20.10;95.60;;;;;;10501437;28;20482;-66
2023/09/28 01:19:11;;;;;;;10.27;8.07;;;20.10;95.50;;;;;;10498266;28;20956;-66
2023/09/28 01:24:12;;;;;;;8.97;8.07;;;20.10;95.60;;;;;;10488881;28;20815;-66
2023/09/28 01:29:12;;;;;;;10.48;8.50;;;20.10;95.60;;;;;;10495545;28;20394;-66
2023/09/28 01:34:13;;;;;;;10.15;9.13;;;20.10;95.60;;;;;;10505635;28;20923;-66
2023/09/28 01:39:15;;;;;;;10.67;9.23;;;20.10;95.60;;;;;;10508196;28;20468;-66
2023/09/28 01:44:16;;;;;;;11.17;9.90;;;20.10;95.60;;;;;;10512684;28;20394;-66
2023/09/28 01:49:17;;;;;;;11.20;9.55;;;20.00;95.60;;;;;;10514492;28;20413;-66
2023/09/28 01:54:18;;;;;;;12.63;10.70;;;20.00;95.60;;;;;;10508698;28;20409;-66
2023/09/28 01:59:18;;;;;;;11.33;9.97;;;20.00;95.60;;;;;;10498813;28;20402;-66
2023/09/28 02:04:19;;;;;;;11.50;9.97;;;20.00;95.90;;;;;;10485713;28;20504;-66
2023/09/28 02:09:19;;;;;;;10.33;9.00;;;20.00;95.60;;;;;;10489698;28;20399;-66
2023/09/28 02:14:20;;;;;;;10.80;9.70;;;20.00;95.60;;;;;;10485098;28;20414;-66
2023/09/28 02:19:22;;;;;;;11.37;9.80;;;20.00;95.60;;;;;;10482440;28;20405;-66
2023/09/28 02:24:23;;;;;;;11.55;10.23;;;20.00;95.60;;;;;;10485494;28;20403;-65
2023/09/28 02:29:23;;;;;;;13.17;10.77;;;20.00;95.60;;;;;;10480194;28;20395;-66
2023/09/28 02:34:24;;;;;;;11.30;9.80;;;19.90;95.60;;;;;;10500572;28;20403;-66
2023/09/28 02:39:28;;;;;;;11.25;9.27;;;19.90;95.60;;;;;;10490291;28;20400;-66
2023/09/28 02:44:28;;;;;;;10.68;9.35;;;19.90;95.60;;;;;;10485482;28;20879;-66
2023/09/28 02:49:29;;;;;;;10.23;8.88;;;19.90;95.60;;;;;;10492490;28;20403;-66
2023/09/28 02:54:30;;;;;;;9.40;8.07;;;19.90;95.60;;;;;;10494750;28;20422;-66
2023/09/28 02:59:31;;;;;;;9.93;8.73;;;19.90;95.60;;;;;;10491619;28;20406;-66
2023/09/28 03:04:33;;;;;;;10.35;8.27;;;19.90;95.70;;;;;;10492942;28;20446;-66
2023/09/28 03:09:34;;;;;;;9.57;8.52;;;19.80;95.70;;;;;;10486546;28;20408;-66
2023/09/28 03:14:34;;;;;;;10.65;8.63;;;19.80;95.70;;;;;;10483137;28;20394;-66
2023/09/28 03:19:35;;;;;;;11.15;8.82;;;19.80;95.70;;;;;;10478932;28;20830;-66
2023/09/28 03:24:36;;;;;;;9.80;8.20;;;19.80;95.70;;;;;;10486398;28;20466;-66
2023/09/28 03:29:38;;;;;;;10.07;8.18;;;19.80;95.70;;;;;;10486756;28;20413;-66
2023/09/28 03:34:38;;;;;;;10.10;8.23;;;19.80;95.70;;;;;;10501149;28;20754;-66
2023/09/28 03:39:39;;;;;;;10.00;7.73;;;19.80;95.70;;;;;;10492412;28;20399;-66
2023/09/28 03:44:40;;;;;;;9.47;8.07;;;19.80;95.80;;;;;;10488036;28;20410;-66
2023/09/28 03:49:41;;;;;;;10.48;7.82;;;19.70;95.70;;;;;;10492659;28;20518;-66
2023/09/28 03:54:42;;;;;;;10.02;8.10;;;19.70;95.70;;;;;;10492201;28;20829;-66
2023/09/28 03:59:42;;;;;;;9.53;8.00;;;19.70;95.70;;;;;;10484090;28;20427;-66
2023/09/28 04:04:43;;;;;;;10.47;7.97;;;19.70;95.80;;;;;;10501600;28;20395;-66
2023/09/28 04:09:44;;;;;;;9.53;7.90;;;19.70;95.80;;;;;;10496345;28;20941;-66
2023/09/28 04:14:44;;;;;;;9.23;7.77;;;19.70;95.80;;;;;;10495857;28;20394;-66
2023/09/28 04:19:46;;;;;;;9.20;7.50;;;19.60;95.80;;;;;;10498169;28;20394;-66
2023/09/28 04:24:47;;;;;;;10.23;7.80;;;19.60;95.80;;;;;;10489341;28;20405;-66
2023/09/28 04:29:47;;;;;;;8.80;7.30;;;19.60;95.70;;;;;;10497606;28;20411;-66
2023/09/28 04:34:48;;;;;;;8.97;7.60;;;19.60;95.80;;;;;;10496101;28;20410;-66
2023/09/28 04:39:49;;;;;;;9.70;7.30;;;19.60;95.70;;;;;;10495524;28;20491;-66
2023/09/28 04:44:50;;;;;;;9.27;7.47;;;19.60;95.70;;;;;;10495589;28;20409;-66
2023/09/28 04:49:50;;;;;;;8.60;7.38;;;19.90;95.80;;;;;;10492804;28;20411;-66
2023/09/28 04:54:52;;;;;;;8.55;6.88;;;19.60;95.70;;;;;;10494500;28;20753;-66
2023/09/28 04:59:53;;;;;;;8.47;7.37;;;19.60;95.80;;;;;;10492201;28;20947;-66
2023/09/28 05:04:54;;;;;;;8.45;7.10;;;19.60;95.70;;;;;;10495515;28;20978;-66
2023/09/28 05:09:55;;;;;;;9.45;7.13;;;19.50;95.70;;;;;;10500237;28;20509;-66
2023/09/28 05:14:57;;;;;;;8.85;6.78;;;19.50;95.70;;;;;;10497635;28;20395;-66
2023/09/28 05:19:58;;;;;;;8.48;7.03;;;19.50;95.70;;;;;;10494530;28;20407;-66
2023/09/28 05:24:58;;;;;;;8.83;6.87;;;19.50;95.80;;;;;;10483748;28;20786;-66
2023/09/28 05:29:59;;;;;;;8.43;6.90;;;19.50;95.70;;;;;;10497154;28;20919;-66
2023/09/28 05:35:00;;;;;;;7.72;6.25;;;19.50;95.80;;;;;;10507739;28;20422;-66
2023/09/28 05:40:01;;;;;;;9.07;7.17;;;19.50;95.80;;;;;;10507792;28;20488;-66
2023/09/28 05:45:03;;;;;;;7.47;6.55;;;19.40;95.80;;;;;;10506404;28;20765;-66
2023/09/28 05:50:04;;;;;;;8.97;6.57;;;19.40;95.80;;;;;;10507285;28;21008;-66
2023/09/28 05:55:05;;;;;;;7.72;6.35;;;19.40;95.80;;;;;;10503618;28;20411;-66
2023/09/28 06:00:09;;;;;;;9.25;6.30;;;19.40;95.80;;;;;;10498283;28;20812;-66
2023/09/28 06:05:10;;;;;;;8.68;6.65;;;19.40;95.80;;;;;;10484120;28;20408;-66
2023/09/28 06:10:10;;;;;;;8.73;6.50;;;19.40;95.80;;;;;;10494193;28;20479;-66
2023/09/28 06:15:11;;;;;;;6.93;5.90;;;19.40;95.80;;;;;;10495626;28;20767;-66
2023/09/28 06:20:12;;;;;;;7.93;6.27;;;19.40;95.70;;;;;;10494043;28;20963;-66
2023/09/28 06:25:13;;;;;;;8.10;6.07;;;19.40;95.70;;;;;;10501419;28;20410;-66
2023/09/28 06:30:13;;;;;;;7.25;6.10;;;19.40;95.70;;;;;;10496822;28;20414;-66
2023/09/28 06:35:14;;;;;;;7.13;5.90;;;19.40;95.70;;;;;;10505525;28;20410;-66
2023/09/28 06:40:15;;;;;;;7.70;5.88;;;19.40;95.90;;;;;;10497977;28;20610;-66
2023/09/28 06:45:15;;;;;;;8.57;5.80;;;19.40;95.70;;;;;;10502300;28;20438;-66
2023/09/28 06:50:16;;;;;;;7.40;5.80;;;19.40;95.60;;;;;;10515030;28;20405;-66
2023/09/28 06:55:17;;;;;;;10.03;5.80;;;19.40;95.60;;;;;;10488269;28;20406;-66
2023/09/28 07:00:18;;;;;;;8.50;5.60;;;19.40;95.60;;;;;;10500075;28;20774;-66
2023/09/28 07:05:19;;;;;;;9.18;6.00;;;19.40;95.60;;;;;;10504430;28;20408;-66
2023/09/28 07:10:19;;;;;;;8.25;5.95;;;19.40;95.60;;;;;;10493743;28;20799;-66
2023/09/28 07:15:22;;;;;;;8.77;6.00;;;19.40;95.70;;;;;;10499112;28;20481;-66
2023/09/28 07:20:26;;;;;;;10.90;5.90;;;19.40;95.80;;;;;;10491249;28;20986;-66
2023/09/28 07:25:26;;;;;;;9.55;5.88;;;19.40;95.70;;;;;;10485720;28;20408;-66
2023/09/28 07:30:27;;;;;;;8.73;5.87;;;19.50;95.80;;;;;;10490596;28;20436;-66
2023/09/28 07:35:27;;;;;;;10.23;5.80;;;19.60;95.70;;;;;;10494593;28;20416;-66
2023/09/28 07:40:28;;;;;;;9.50;5.40;;;19.60;95.70;;;;;;10498074;28;20920;-66
2023/09/28 07:45:30;;;;;;;9.57;5.50;;;19.60;95.50;;;;;;10509740;28;20543;-66
2023/09/28 07:50:31;;;;;;;8.10;5.33;;;19.60;95.50;;;;;;10498109;28;20405;-66
2023/09/28 07:55:31;;;;;;;9.35;5.40;;;19.60;95.40;;;;;;10475229;28;20405;-65
2023/09/28 08:00:33;;;;;;;9.90;5.70;;;19.60;95.40;;;;;;10481551;28;20399;-66
2023/09/28 08:05:33;;;;;;;8.70;5.57;;;19.60;95.50;;;;;;10497683;28;20771;-66
2023/09/28 08:10:34;;;;;;;9.37;5.63;;;19.60;95.50;;;;;;10487899;28;20416;-66
2023/09/28 08:15:38;;;;;;;7.43;5.50;;;19.60;95.50;;;;;;10494537;28;20391;-66
2023/09/28 08:20:38;;;;;;;9.48;5.40;;;19.70;95.50;;;;;;10487878;28;20401;-66
2023/09/28 08:25:40;;;;;;;9.18;4.97;;;19.70;95.60;;;;;;10488546;28;20825;-66
2023/09/28 08:30:41;;;;;;;10.65;5.75;;;19.70;95.50;;;;;;10490185;28;20415;-66
2023/09/28 08:35:51;;;;;;;10.93;5.55;;;19.60;95.50;;;;;;10499440;28;20494;-66
2023/09/28 08:40:58;;;;;;;9.47;5.63;;;19.70;95.50;;;;;;10491927;28;20411;-66
2023/09/28 08:46:02;;;;;;;10.60;5.88;;;19.70;95.50;;;;;;10487830;28;20395;-66
2023/09/28 08:51:09;;;;;;;11.70;5.68;;;19.70;95.50;;;;;;10499963;28;20414;-66
2023/09/28 08:56:10;;;;;;;9.73;5.68;;;19.70;95.40;;;;;;10506572;28;20406;-66
2023/09/28 09:01:12;;;;;;;11.33;5.43;;;19.70;95.50;;;;;;10502214;28;20402;-66
2023/09/28 09:06:13;;;;;;;10.80;5.37;;;19.70;95.50;;;;;;10499103;28;20406;-66
2023/09/28 09:11:18;;;;;;;9.48;5.43;;;19.80;95.60;;;;;;10501781;28;20413;-66
2023/09/28 09:16:26;;;;;;;8.88;4.88;;;19.80;95.40;;;;;;10497300;28;20900;-66
2023/09/28 09:21:39;;;;;;;11.00;5.10;;;19.80;95.30;;;;;;10489808;28;20405;-66
2023/09/28 09:26:47;;;;;;;10.88;5.40;;;19.80;95.30;;;;;;10501419;28;20400;-65
2023/09/28 09:31:49;;;;;;;10.18;4.97;;;19.80;95.30;;;;;;10497411;28;20466;-66
2023/09/28 09:36:59;;;;;;;11.18;5.03;;;19.80;95.20;;;;;;10513862;28;20405;-66
2023/09/28 09:42:00;;;;;;;12.20;5.30;;;19.80;95.20;;;;;;10492892;28;20399;-66
2023/09/28 09:47:00;;;;;;;12.25;4.72;;;19.80;95.20;;;;;;10507557;28;20775;-66
2023/09/28 09:52:02;;;;;;;10.98;4.78;;;19.90;95.20;;;;;;10502665;28;20411;-66
2023/09/28 09:57:06;;;;;;;10.52;5.25;;;19.90;95.20;;;;;;10504035;28;20456;-66
2023/09/28 10:02:16;;;;;;;9.98;4.55;;;19.90;95.20;;;;;;10502437;28;20419;-66
2023/09/28 10:07:17;;;;;;;11.13;4.77;;;19.80;95.40;;;;;;10499828;28;20690;-66
2023/09/28 10:12:19;;;;;;;9.52;4.47;;;19.90;95.10;;;;;;10499283;28;20516;-66
2023/09/28 10:17:20;;;;;;;11.85;4.40;;;19.90;95.10;;;;;;10496371;28;20531;-66
2023/09/28 10:22:21;;;;;;;9.88;4.20;;;20.10;95.10;;;;;;10500435;28;20893;-66
2023/09/28 10:27:22;;;;;;;10.95;4.53;;;20.00;95.00;;;;;;10496535;28;20494;-66
2023/09/28 10:32:30;;;;;;;13.02;4.40;;;20.00;94.90;;;;;;10493316;28;20983;-66
2023/09/28 10:37:33;;;;;;;9.95;4.20;;;20.00;94.90;;;;;;10499919;28;20413;-66
2023/09/28 10:42:35;;;;;;;10.20;3.97;;;20.10;94.80;;;;;;10503043;28;20394;-66
2023/09/28 10:47:37;;;;;;;10.32;4.10;;;20.10;94.80;;;;;;10502603;28;20407;-66
2023/09/28 10:52:37;;;;;;;9.43;4.00;;;20.10;94.70;;;;;;10497380;28;20823;-66
2023/09/28 10:57:39;;;;;;;11.63;4.30;;;20.10;94.70;;;;;;10497422;28;20408;-66
2023/09/28 11:02:41;;;;;;;8.43;3.60;;;20.10;94.70;;;;;;10491120;28;20574;-66
2023/09/28 11:07:42;;;;;;;10.45;3.88;;;20.10;94.60;;;;;;10493721;28;20439;-66
2023/09/28 11:12:42;;;;;;;8.07;3.58;;;20.20;94.60;;;;;;10498670;28;20508;-66
2023/09/28 11:17:44;;;;;;;10.35;3.83;;;20.20;94.60;;;;;;10503530;28;20484;-66
2023/09/28 11:22:45;;;;;;;10.33;3.70;;;20.20;94.60;;;;;;10483826;28;20407;-66
2023/09/28 11:27:46;;;;;;;9.00;3.33;;;20.10;94.60;;;;;;10497529;28;20759;-66
2023/09/28 11:32:48;;;;;;;9.70;3.93;;;20.20;94.60;;;;;;10492017;28;20510;-66
2023/09/28 11:37:51;;;;;;;9.30;3.50;;;20.20;94.60;;;;;;10500411;28;20457;-66
2023/09/28 11:42:53;;;;;;;10.20;3.50;;;20.20;94.60;;;;;;10497957;28;20813;-66
2023/09/28 11:47:54;;;;;;;8.60;3.40;;;20.20;94.60;;;;;;10489333;28;20961;-66
2023/09/28 11:52:55;;;;;;;8.10;3.28;;;20.20;94.50;;;;;;10496619;28;20406;-66
2023/09/28 11:57:57;;;;;;;9.68;3.42;;;20.20;94.50;;;;;;10502302;28;20395;-66
2023/09/28 12:02:58;;;;;;;9.70;3.70;;;20.30;94.50;;;;;;10494900;28;20737;-66
2023/09/28 12:07:59;;;;;;;10.88;3.50;;;20.30;94.50;;;;;;10496044;28;20409;-66
2023/09/28 12:13:00;;;;;;;10.02;3.53;;;20.30;94.40;;;;;;10499718;28;20443;-66
2023/09/28 12:18:01;;;;;;;11.43;3.80;;;20.30;94.40;;;;;;10493420;28;20433;-66
2023/09/28 12:23:01;;;;;;;9.43;3.70;;;20.30;94.40;;;;;;10494797;28;20483;-66
2023/09/28 12:28:02;;;;;;;8.77;3.60;;;20.30;94.40;;;;;;10493403;28;20407;-66
2023/09/28 12:33:04;;;;;;;10.03;3.47;;;20.30;94.40;;;;;;10487849;28;20934;-66
2023/09/28 12:38:08;;;;;;;9.73;3.25;;;20.30;94.40;;;;;;10495109;28;20968;-66
2023/09/28 12:43:10;;;;;;;11.57;3.40;;;20.40;94.40;;;;;;10482766;28;20457;-66
2023/09/28 12:48:11;;;;;;;10.77;3.45;;;20.40;94.40;;;;;;10484281;28;20470;-66
2023/09/28 12:53:13;;;;;;;8.02;3.17;;;20.30;94.30;;;;;;10489306;28;20730;-66
2023/09/28 12:58:15;;;;;;;8.85;3.45;;;20.40;94.30;;;;;;10485117;28;22230;-66
2023/09/28 13:03:16;;;;;;;9.97;3.77;;;20.40;94.20;;;;;;10489798;28;20408;-66
2023/09/28 13:08:19;;;;;;;11.45;3.55;;;20.40;94.20;;;;;;10485524;28;20954;-66
2023/09/28 13:13:20;;;;;;;10.57;3.30;;;20.50;94.20;;;;;;10486997;28;20418;-66
2023/09/28 13:18:21;;;;;;;8.90;3.37;;;20.50;94.20;;;;;;10484734;28;20418;-66
2023/09/28 13:23:21;;;;;;;8.90;3.47;;;20.50;94.20;;;;;;10484606;28;20786;-66
2023/09/28 13:28:22;;;;;;;8.63;3.23;;;20.50;94.20;;;;;;10489632;28;20403;-66
2023/09/28 13:33:23;;;;;;;11.07;3.40;;;20.50;94.30;;;;;;10495791;28;20480;-66
2023/09/28 13:38:24;;;;;;;7.93;3.45;;;20.60;94.30;;;;;;10489823;28;20883;-66
2023/09/28 13:43:25;;;;;;;8.90;3.20;;;20.40;94.20;;;;;;10494355;28;20407;-66
2023/09/28 13:48:28;;;;;;;9.27;3.33;;;20.40;94.20;;;;;;10491132;28;20845;-66
2023/09/28 13:53:29;;;;;;;7.20;3.03;;;20.40;94.20;;;;;;10489484;28;20450;-66
2023/09/28 13:58:31;;;;;;;10.47;3.60;;;20.40;94.20;;;;;;10498831;28;20412;-66
2023/09/28 14:03:31;;;;;;;9.55;3.47;;;20.40;94.20;;;;;;10491100;28;20404;-66
2023/09/28 14:08:32;;;;;;;9.95;3.30;;;20.40;94.20;;;;;;10490662;28;20927;-66
2023/09/28 14:13:33;;;;;;;8.75;3.60;;;20.40;94.20;;;;;;10486871;28;20399;-66
2023/09/28 14:18:33;;;;;;;8.20;3.17;;;20.50;94.30;;;;;;10489175;28;20399;-66
2023/09/28 14:23:34;;;;;;;9.45;3.92;;;20.40;94.30;;;;;;10488002;28;20443;-66
2023/09/28 14:28:35;;;;;;;6.85;3.10;;;20.40;94.40;;;;;;10494510;28;20410;-66
2023/09/28 14:33:36;;;;;;;8.17;3.70;;;20.40;94.40;;;;;;10504413;28;20473;-66
2023/09/28 14:38:37;;;;;;;7.27;2.93;;;20.40;94.40;;;;;;10488384;28;20717;-66
2023/09/28 14:43:38;;;;;;;10.48;3.55;;;20.40;94.40;;;;;;10503129;28;20903;-66
2023/09/28 14:48:40;;;;;;;8.05;3.28;;;20.40;94.40;;;;;;10502032;28;20415;-66
2023/09/28 14:53:41;;;;;;;9.20;3.90;;;20.40;94.40;;;;;;10500515;28;20466;-66
2023/09/28 14:58:41;;;;;;;10.15;3.70;;;20.40;94.40;;;;;;10503845;28;20396;-66
2023/09/28 15:03:42;;;;;;;8.15;3.47;;;20.40;94.40;;;;;;10498684;28;20448;-66
2023/09/28 15:08:42;;;;;;;7.28;3.25;;;20.40;94.40;;;;;;10500405;28;20915;-66
2023/09/28 15:13:43;;;;;;;8.98;3.55;;;20.40;94.40;;;;;;10495962;28;20432;-66
2023/09/28 15:18:44;;;;;;;9.40;3.30;;;20.40;94.40;;;;;;10493657;28;20403;-66
2023/09/28 15:23:45;;;;;;;7.78;3.30;;;20.40;94.40;;;;;;10496105;28;20396;-66
2023/09/28 15:28:45;;;;;;;9.15;3.50;;;20.40;94.40;;;;;;10500558;28;20414;-66
2023/09/28 15:33:47;;;;;;;10.07;3.40;;;20.50;94.40;;;;;;10493692;28;20421;-66
2023/09/28 15:38:47;;;;;;;9.65;3.50;;;20.40;94.40;;;;;;10497081;28;20389;-66
2023/09/28 15:43:48;;;;;;;8.95;3.75;;;20.40;94.40;;;;;;10498447;28;20928;-66
2023/09/28 15:48:48;;;;;;;10.77;3.80;;;20.40;94.40;;;;;;10489467;28;20405;-66
2023/09/28 15:53:49;;;;;;;7.78;3.40;;;20.40;94.50;;;;;;10495262;28;20402;-66
2023/09/28 15:58:50;;;;;;;7.70;3.47;;;20.40;94.50;;;;;;10494366;28;20410;-66
2023/09/28 16:03:53;;;;;;;8.30;3.42;;;20.30;94.50;;;;;;10498504;28;20836;-66
2023/09/28 16:08:53;;;;;;;8.23;3.30;;;20.30;94.50;;;;;;10484464;28;20402;-66
2023/09/28 16:14:01;;;;;;;8.10;3.43;;;20.30;94.60;;;;;;10492011;28;21076;-66
2023/09/28 16:19:02;;;;;;;6.90;3.43;;;20.40;94.60;;;;;;10489971;28;20394;-66
2023/09/28 16:24:03;;;;;;;7.65;3.40;;;20.30;94.70;;;;;;10482811;28;20803;-66
2023/09/28 16:29:04;;;;;;;7.93;3.53;;;20.30;94.70;;;;;;10496159;28;20681;-66
2023/09/28 16:34:04;;;;;;;7.57;3.10;;;20.30;94.70;;;;;;10495874;28;20416;-66
2023/09/28 16:39:13;;;;;;;7.18;3.33;;;20.20;94.80;;;;;;10488459;28;20456;-66
2023/09/28 16:44:13;;;;;;;7.13;3.42;;;20.20;94.80;;;;;;10500109;28;20406;-66
2023/09/28 16:49:14;;;;;;;7.73;3.90;;;20.20;94.80;;;;;;10499430;28;20962;-66
2023/09/28 16:54:17;;;;;;;6.80;3.43;;;20.20;94.80;;;;;;10499663;28;20406;-66
2023/09/28 16:59:17;;;;;;;7.43;3.92;;;20.20;95.10;;;;;;10496696;28;20413;-66
2023/09/28 17:04:18;;;;;;;6.78;3.70;;;20.20;94.90;;;;;;10496551;28;20398;-66
2023/09/28 17:09:19;;;;;;;6.95;3.63;;;20.20;94.90;;;;;;10494598;28;20402;-66
2023/09/28 17:14:19;;;;;;;7.15;3.80;;;20.20;95.00;;;;;;10501957;28;20422;-66
2023/09/28 17:19:20;;;;;;;7.53;3.78;;;20.10;95.00;;;;;;10506648;28;20393;-66
2023/09/28 17:24:20;;;;;;;8.05;4.18;;;20.10;95.00;;;;;;10487692;28;20940;-66
2023/09/28 17:29:21;;;;;;;7.97;3.97;;;20.10;95.00;;;;;;10502593;28;20400;-66
2023/09/28 17:34:22;;;;;;;9.80;5.45;;;20.10;95.00;;;;;;10494948;28;20752;-66
2023/09/28 17:39:22;;;;;;;9.10;4.40;;;20.10;95.10;;;;;;10514292;28;20397;-66
2023/09/28 17:44:23;;;;;;;9.68;4.28;;;20.10;95.10;;;;;;10504801;28;20405;-66
2023/09/28 17:49:24;;;;;;;8.55;4.80;;;20.00;95.10;;;;;;10493265;28;20402;-66
2023/09/28 17:54:24;;;;;;;8.55;3.88;;;20.00;95.10;;;;;;10501887;28;20765;-66
2023/09/28 17:59:28;;;;;;;9.38;4.18;;;20.00;95.10;;;;;;10499539;28;20432;-66
2023/09/28 18:04:28;;;;;;;6.50;3.80;;;20.00;95.20;;;;;;10502778;28;20406;-66
2023/09/28 18:09:29;;;;;;;8.20;4.43;;;20.00;95.20;;;;;;10513824;28;20452;-66
2023/09/28 18:14:30;;;;;;;7.57;4.43;;;20.00;95.30;;;;;;10502371;28;20407;-66
2023/09/28 18:19:31;;;;;;;9.10;4.03;;;20.00;95.30;;;;;;10499774;28;20885;-66
2023/09/28 18:24:35;;;;;;;7.55;4.07;;;20.00;95.30;;;;;;10497106;28;20461;-66
2023/09/28 18:29:37;;;;;;;10.95;4.10;;;19.90;95.30;;;;;;10500788;28;20405;-66
2023/09/28 18:34:37;;;;;;;7.20;4.00;;;19.90;95.40;;;;;;10486941;28;20496;-66
2023/09/28 18:39:40;;;;;;;9.80;4.40;;;19.90;95.40;;;;;;10490300;28;20395;-66
2023/09/28 18:44:41;;;;;;;6.83;3.50;;;19.90;95.40;;;;;;10490082;28;20399;-66
2023/09/28 18:49:41;;;;;;;7.33;3.73;;;19.90;95.40;;;;;;10467728;28;20471;-66
2023/09/28 18:54:42;;;;;;;8.13;3.73;;;19.90;95.50;;;;;;10470797;28;20420;-66
2023/09/28 18:59:43;;;;;;;8.67;3.63;;;19.80;95.50;;;;;;10485531;28;20397;-66
2023/09/28 19:04:43;;;;;;;9.70;3.77;;;19.90;95.50;;;;;;10482117;28;20818;-66
2023/09/28 19:09:44;;;;;;;11.53;5.07;;;19.80;95.50;;;;;;10493772;28;20426;-66
2023/09/28 19:14:44;;;;;;;11.20;5.57;;;19.80;95.60;;;;;;10492585;28;20548;-66
2023/09/28 19:19:45;;;;;;;10.03;4.80;;;19.80;95.60;;;;;;10485443;28;20388;-66
2023/09/28 19:24:46;;;;;;;11.37;5.10;;;19.80;95.60;;;;;;10479674;28;20952;-66
2023/09/28 19:29:47;;;;;;;10.65;4.90;;;19.80;95.60;;;;;;10488212;28;20398;-66
2023/09/28 19:34:47;;;;;;;12.70;5.33;;;19.80;95.60;;;;;;10474039;28;20408;-66
2023/09/28 19:39:48;;;;;;;10.32;4.97;;;19.80;95.60;;;;;;10479627;28;20405;-66
2023/09/28 19:44:48;;;;;;;8.60;4.35;;;19.70;95.60;;;;;;10482762;28;20400;-66
2023/09/28 19:49:49;;;;;;;11.38;4.63;;;19.70;95.60;;;;;;10488926;28;20846;-66
2023/09/28 19:54:50;;;;;;;11.82;4.85;;;19.70;95.60;;;;;;10491802;28;20774;-66
2023/09/28 19:59:52;;;;;;;9.95;4.60;;;19.70;95.60;;;;;;10485112;28;20395;-66
2023/09/28 20:04:53;;;;;;;11.45;4.90;;;19.70;95.60;;;;;;10488824;28;21000;-66
2023/09/28 20:09:53;;;;;;;11.40;4.53;;;19.70;95.60;;;;;;10487953;28;20522;-66
2023/09/28 20:14:54;;;;;;;8.95;4.22;;;19.70;95.70;;;;;;10484096;28;20774;-66
2023/09/28 20:19:55;;;;;;;7.93;4.45;;;19.70;95.70;;;;;;10482394;28;20450;-66
2023/09/28 20:24:55;;;;;;;8.43;4.38;;;19.60;95.60;;;;;;10488082;28;20394;-67
2023/09/28 20:29:56;;;;;;;11.13;4.50;;;19.60;95.70;;;;;;10485964;28;20407;-66
2023/09/28 20:34:57;;;;;;;10.45;4.50;;;19.60;95.60;;;;;;10485490;28;20410;-66
2023/09/28 20:39:57;;;;;;;11.73;4.43;;;19.60;95.60;;;;;;10490951;28;20789;-66
2023/09/28 20:44:58;;;;;;;8.03;4.50;;;19.60;95.60;;;;;;10484350;28;20399;-66
2023/09/28 20:49:59;;;;;;;9.20;4.23;;;19.60;95.60;;;;;;10490723;28;20395;-66
2023/09/28 20:55:00;;;;;;;7.00;4.13;;;19.60;95.70;;;;;;10492326;28;20394;-66
2023/09/28 21:00:05;;;;;;;8.85;3.92;;;19.60;95.60;;;;;;10488071;28;20669;-66
2023/09/28 21:05:06;;;;;;;9.00;4.07;;;19.60;95.60;;;;;;10488535;28;20391;-66
2023/09/28 21:10:07;;;;;;;8.03;4.10;;;19.50;95.60;;;;;;10492822;28;20399;-66
2023/09/28 21:15:08;;;;;;;7.93;4.00;;;19.60;95.90;;;;;;10482323;28;20406;-67
2023/09/28 21:20:11;;;;;;;9.38;3.85;;;19.50;95.60;;;;;;10482975;28;20415;-66
2023/09/28 21:25:12;;;;;;;9.57;4.20;;;19.50;95.60;;;;;;10488401;28;20396;-66
2023/09/28 21:30:13;;;;;;;9.93;4.13;;;19.50;95.60;;;;;;10493640;28;20822;-66
2023/09/28 21:35:14;;;;;;;7.38;3.90;;;19.50;95.60;;;;;;10482923;28;20405;-65
2023/09/28 21:40:14;;;;;;;8.30;3.90;;;19.50;95.60;;;;;;10490954;28;20467;-66
2023/09/28 21:45:15;;;;;;;8.85;3.85;;;19.50;95.60;;;;;;10491277;28;20406;-66
2023/09/28 21:50:15;;;;;;;8.95;3.80;;;19.50;95.60;;;;;;10488367;28;20410;-65
2023/09/28 21:55:16;;;;;;;8.35;3.67;;;19.50;95.60;;;;;;10493563;28;20390;-66
2023/09/28 22:00:51;;;;;;;8.00;3.65;;;19.50;95.50;;;;;;10500347;28;20493;-66
2023/09/28 22:05:44;;;;;;;7.53;4.30;;;19.50;95.50;;;;;;10497905;28;20422;-66
2023/09/28 22:10:45;;;;;;;7.38;3.90;;;19.40;95.50;;;;;;10494906;28;20774;-66
2023/09/28 22:15:45;;;;;;;6.07;3.70;;;19.40;95.50;;;;;;10479177;28;20389;-66
2023/09/28 22:20:46;;;;;;;6.60;3.70;;;19.40;95.50;;;;;;10499444;28;20784;-66
2023/09/28 22:25:47;;;;;;;8.85;3.60;;;19.40;95.50;;;;;;10485917;28;20409;-66
2023/09/28 22:30:47;;;;;;;9.07;4.20;;;19.40;95.50;;;;;;10495713;28;20779;-65
2023/09/28 22:35:48;;;;;;;6.93;3.85;;;19.50;95.50;;;;;;10490615;28;20410;-66
2023/09/28 22:40:49;;;;;;;8.03;3.70;;;19.40;95.50;;;;;;10502481;28;20990;-66
2023/09/28 22:45:50;;;;;;;6.57;3.67;;;19.40;95.50;;;;;;10494342;28;20398;-65
2023/09/28 22:50:50;;;;;;;7.80;3.90;;;19.40;95.50;;;;;;10499523;28;20446;-66
2023/09/28 22:55:52;;;;;;;6.93;3.63;;;19.40;95.50;;;;;;10513909;28;20400;-65
2023/09/28 23:00:52;;;;;;;6.70;4.00;;;19.40;95.50;;;;;;10505800;28;20388;-65
2023/09/28 23:05:54;;;;;;;6.97;3.67;;;19.40;95.50;;;;;;10503755;28;20398;-66
2023/09/28 23:10:55;;;;;;;9.63;4.00;;;19.40;95.50;;;;;;10497717;28;20419;-66
2023/09/28 23:15:55;;;;;;;7.23;3.73;;;19.40;95.50;;;;;;10482428;28;20405;-65
2023/09/28 23:20:56;;;;;;;7.13;3.83;;;19.40;95.50;;;;;;10491557;28;20458;-66
2023/09/28 23:25:57;;;;;;;7.85;4.10;;;19.40;95.50;;;;;;10487511;28;20400;-66
2023/09/28 23:30:59;;;;;;;8.40;3.97;;;19.30;95.40;;;;;;10481046;28;20466;-66
2023/09/28 23:35:59;;;;;;;7.93;3.72;;;19.30;95.40;;;;;;10486456;28;20399;-65
2023/09/28 23:41:06;;;;;;;7.10;3.40;;;19.30;95.40;;;;;;10487005;28;20409;-65
2023/09/28 23:46:09;;;;;;;7.25;3.70;;;19.30;95.70;;;;;;10494819;28;20396;-65
2023/09/28 23:51:11;;;;;;;6.47;3.67;;;19.30;95.40;;;;;;10489504;28;20417;-66
2023/09/28 23:56:12;;;;;;;6.60;3.83;;;19.30;95.40;;;;;;10487131;28;20532;-66
